createdAt,value
2018-08-11T00:00:56.315Z,25.83
2018-08-11T00:02:05.765Z,25.82
2018-08-11T00:03:14.927Z,25.9
2018-08-11T00:04:24.260Z,25.77
2018-08-11T00:05:33.665Z,25.77
2018-08-11T00:06:42.558Z,25.75
2018-08-11T00:07:51.806Z,25.75
2018-08-11T00:09:01.229Z,25.77
2018-08-11T00:10:10.653Z,25.76
2018-08-11T00:11:20.403Z,25.8
2018-08-11T00:12:30.075Z,25.9
2018-08-11T00:13:39.532Z,25.88
2018-08-11T00:14:49.482Z,25.82
2018-08-11T00:15:58.639Z,25.83
2018-08-11T00:17:07.555Z,25.91
2018-08-11T00:18:17.290Z,25.88
2018-08-11T00:19:26.699Z,25.87
2018-08-11T00:20:35.341Z,25.85
2018-08-11T00:21:44.819Z,25.92
2018-08-11T00:22:53.718Z,25.91
2018-08-11T00:24:02.865Z,25.9
2018-08-11T00:25:12.266Z,25.83
2018-08-11T00:26:21.260Z,25.83
2018-08-11T00:27:30.161Z,25.87
2018-08-11T00:28:39.314Z,25.92
2018-08-11T00:29:48.209Z,25.82
2018-08-11T00:30:57.664Z,25.85
2018-08-11T00:32:07.077Z,25.83
2018-08-11T00:33:16.246Z,25.77
2018-08-11T00:34:25.708Z,25.77
2018-08-11T00:35:35.364Z,25.76
2018-08-11T00:36:45.062Z,25.76
2018-08-11T00:37:53.967Z,25.77
2018-08-11T00:39:03.384Z,25.82
2018-08-11T00:40:13.055Z,25.79
2018-08-11T00:41:22.496Z,25.75
2018-08-11T00:42:31.661Z,25.7
2018-08-11T00:43:40.548Z,25.75
2018-08-11T00:44:49.952Z,25.79
2018-08-11T00:45:59.631Z,25.72
2018-08-11T00:47:08.578Z,25.75
2018-08-11T00:48:17.490Z,25.76
2018-08-11T00:49:27.200Z,25.77
2018-08-11T00:50:37.103Z,25.73
2018-08-11T00:51:47.019Z,25.73
2018-08-11T00:52:55.910Z,25.72
2018-08-11T00:54:05.411Z,25.69
2018-08-11T00:55:14.337Z,25.7
2018-08-11T00:56:23.490Z,25.75
2018-08-11T00:57:33.192Z,25.75
2018-08-11T00:58:42.337Z,25.76
2018-08-11T00:59:51.759Z,25.72
2018-08-11T01:01:00.704Z,25.76
2018-08-11T01:02:10.397Z,25.77
2018-08-11T01:03:19.890Z,25.79
2018-08-11T01:04:28.806Z,25.83
2018-08-11T01:05:38.228Z,25.73
2018-08-11T01:06:47.696Z,25.75
2018-08-11T01:07:57.376Z,25.73
2018-08-11T01:09:06.596Z,25.7
2018-08-11T01:10:16.000Z,25.72
2018-08-11T01:11:24.699Z,25.75
2018-08-11T01:12:34.386Z,25.77
2018-08-11T01:13:43.608Z,25.7
2018-08-11T01:14:53.019Z,25.72
2018-08-11T01:16:02.947Z,25.73
2018-08-11T01:17:12.125Z,25.72
2018-08-11T01:18:21.822Z,25.67
2018-08-11T01:19:30.986Z,25.7
2018-08-11T01:20:40.692Z,25.7
2018-08-11T01:21:50.096Z,25.75
2018-08-11T01:22:59.542Z,25.73
2018-08-11T01:24:08.452Z,25.7
2018-08-11T01:25:17.593Z,25.73
2018-08-11T01:26:27.293Z,25.7
2018-08-11T01:27:36.996Z,25.7
2018-08-11T01:28:46.458Z,25.72
2018-08-11T01:29:55.703Z,25.72
2018-08-11T01:31:04.850Z,25.75
2018-08-11T01:32:14.288Z,25.72
2018-08-11T01:33:23.699Z,25.72
2018-08-11T01:34:33.118Z,25.69
2018-08-11T01:35:42.795Z,25.7
2018-08-11T01:36:52.470Z,25.75
2018-08-11T01:38:01.391Z,25.67
2018-08-11T01:39:10.798Z,25.76
2018-08-11T01:40:20.224Z,25.7
2018-08-11T01:41:29.910Z,25.77
2018-08-11T01:42:39.315Z,25.65
2018-08-11T01:43:48.798Z,25.7
2018-08-11T01:44:58.209Z,25.7
2018-08-11T01:46:07.162Z,25.65
2018-08-11T01:47:16.098Z,25.7
2018-08-11T01:48:25.234Z,25.69
2018-08-11T01:49:34.907Z,25.67
2018-08-11T01:50:44.070Z,25.69
2018-08-11T01:51:52.959Z,25.7
2018-08-11T01:53:02.113Z,25.69
2018-08-11T01:54:11.825Z,25.73
2018-08-11T01:55:21.495Z,25.72
2018-08-11T01:56:30.925Z,25.67
2018-08-11T01:57:39.828Z,25.69
2018-08-11T01:58:49.244Z,25.69
2018-08-11T01:59:58.728Z,25.7
2018-08-11T02:01:07.630Z,25.7
2018-08-11T02:02:16.527Z,25.69
2018-08-11T02:03:25.430Z,25.69
2018-08-11T02:04:34.714Z,25.69
2018-08-11T02:05:44.633Z,25.61
2018-08-11T02:06:54.340Z,25.61
2018-08-11T02:08:03.516Z,25.58
2018-08-11T02:09:12.971Z,25.67
2018-08-11T02:10:22.142Z,25.62
2018-08-11T02:11:31.322Z,25.64
2018-08-11T02:12:40.477Z,25.67
2018-08-11T02:13:49.738Z,25.69
2018-08-11T02:14:59.132Z,25.62
2018-08-11T02:16:08.318Z,25.64
2018-08-11T02:17:17.535Z,25.6
2018-08-11T02:18:26.427Z,25.57
2018-08-11T02:19:35.847Z,25.54
2018-08-11T02:20:45.066Z,25.61
2018-08-11T02:21:54.236Z,25.51
2018-08-11T02:23:03.648Z,25.51
2018-08-11T02:24:12.626Z,25.57
2018-08-11T02:25:21.814Z,25.54
2018-08-11T02:26:31.221Z,25.57
2018-08-11T02:27:40.957Z,25.52
2018-08-11T02:28:50.391Z,25.57
2018-08-11T02:29:59.580Z,25.54
2018-08-11T02:31:09.513Z,25.5
2018-08-11T02:32:19.029Z,25.51
2018-08-11T02:33:28.949Z,25.58
2018-08-11T02:34:38.638Z,25.57
2018-08-11T02:35:48.567Z,25.55
2018-08-11T02:36:57.734Z,25.47
2018-08-11T02:38:06.900Z,25.52
2018-08-11T02:39:16.632Z,25.55
2018-08-11T02:40:25.801Z,25.46
2018-08-11T02:41:35.486Z,25.47
2018-08-11T02:42:44.895Z,25.47
2018-08-11T02:43:54.317Z,25.51
2018-08-11T02:45:03.775Z,25.5
2018-08-11T02:46:13.722Z,25.57
2018-08-11T02:47:23.419Z,25.47
2018-08-11T02:48:33.156Z,25.5
2018-08-11T02:49:43.108Z,25.5
2018-08-11T02:50:53.077Z,25.5
2018-08-11T02:52:02.229Z,25.52
2018-08-11T02:53:11.730Z,25.46
2018-08-11T02:54:21.133Z,25.5
2018-08-11T02:55:30.563Z,25.52
2018-08-11T02:56:40.246Z,25.47
2018-08-11T02:57:49.752Z,25.45
2018-08-11T02:58:59.436Z,25.45
2018-08-11T03:00:09.162Z,25.38
2018-08-11T03:01:18.575Z,25.5
2018-08-11T03:02:27.597Z,25.39
2018-08-11T03:03:37.610Z,25.47
2018-08-11T03:04:46.781Z,25.38
2018-08-11T03:05:56.237Z,25.36
2018-08-11T03:07:05.658Z,25.43
2018-08-11T03:08:14.841Z,25.39
2018-08-11T03:09:24.547Z,25.45
2018-08-11T03:10:33.720Z,25.36
2018-08-11T03:11:42.920Z,25.43
2018-08-11T03:12:52.858Z,25.42
2018-08-11T03:14:02.859Z,25.38
2018-08-11T03:15:12.560Z,25.36
2018-08-11T03:16:22.240Z,25.33
2018-08-11T03:17:31.437Z,25.33
2018-08-11T03:18:41.137Z,25.39
2018-08-11T03:19:50.301Z,25.38
2018-08-11T03:20:59.852Z,25.39
2018-08-11T03:22:09.289Z,25.28
2018-08-11T03:23:19.290Z,25.38
2018-08-11T03:24:28.456Z,25.28
2018-08-11T03:25:38.447Z,25.35
2018-08-11T03:26:48.370Z,25.28
2018-08-11T03:27:58.043Z,25.32
2018-08-11T03:29:06.949Z,25.36
2018-08-11T03:30:16.699Z,25.27
2018-08-11T03:31:26.658Z,25.39
2018-08-11T03:32:36.072Z,25.39
2018-08-11T03:33:45.236Z,25.27
2018-08-11T03:34:54.464Z,25.35
2018-08-11T03:36:03.377Z,25.32
2018-08-11T03:37:12.520Z,25.3
2018-08-11T03:38:21.680Z,25.3
2018-08-11T03:39:30.863Z,25.32
2018-08-11T03:40:40.275Z,25.3
2018-08-11T03:41:49.430Z,25.24
2018-08-11T03:42:59.331Z,25.21
2018-08-11T03:44:08.533Z,25.27
2018-08-11T03:45:18.054Z,25.27
2018-08-11T03:46:27.470Z,25.3
2018-08-11T03:47:36.900Z,25.21
2018-08-11T03:48:46.101Z,25.24
2018-08-11T03:49:55.765Z,25.28
2018-08-11T03:51:05.244Z,25.2
2018-08-11T03:52:14.917Z,25.24
2018-08-11T03:53:24.329Z,25.21
2018-08-11T03:54:33.501Z,25.23
2018-08-11T03:55:42.913Z,25.21
2018-08-11T03:56:52.602Z,25.2
2018-08-11T03:58:01.778Z,25.2
2018-08-11T03:59:11.299Z,25.18
2018-08-11T04:00:20.706Z,25.18
2018-08-11T04:01:29.610Z,25.15
2018-08-11T04:02:39.601Z,25.21
2018-08-11T04:03:49.043Z,25.2
2018-08-11T04:04:58.738Z,25.18
2018-08-11T04:06:08.141Z,25.21
2018-08-11T04:07:18.123Z,25.18
2018-08-11T04:08:27.096Z,25.15
2018-08-11T04:09:35.757Z,25.18
2018-08-11T04:10:45.698Z,25.13
2018-08-11T04:11:54.865Z,25.17
2018-08-11T04:13:04.368Z,25.1
2018-08-11T04:14:13.538Z,25.15
2018-08-11T04:15:22.983Z,25.14
2018-08-11T04:16:32.396Z,25.18
2018-08-11T04:17:42.058Z,25.13
2018-08-11T04:18:51.216Z,25.1
2018-08-11T04:20:00.372Z,25.14
2018-08-11T04:21:10.039Z,25.09
2018-08-11T04:22:19.459Z,25.15
2018-08-11T04:23:28.362Z,25.06
2018-08-11T04:24:38.024Z,25.06
2018-08-11T04:25:47.430Z,25.09
2018-08-11T04:26:56.100Z,25.08
2018-08-11T04:28:05.006Z,25.08
2018-08-11T04:29:14.195Z,25.05
2018-08-11T04:30:23.865Z,25.05
2018-08-11T04:31:33.445Z,25.13
2018-08-11T04:32:42.344Z,25.06
2018-08-11T04:33:52.031Z,25.1
2018-08-11T04:35:01.186Z,25.1
2018-08-11T04:36:10.345Z,25.13
2018-08-11T04:37:20.020Z,25.13
2018-08-11T04:38:29.161Z,25
2018-08-11T04:39:39.073Z,25.06
2018-08-11T04:40:48.234Z,25.05
2018-08-11T04:41:58.312Z,25.09
2018-08-11T04:43:08.464Z,25.08
2018-08-11T04:44:17.874Z,25.09
2018-08-11T04:45:26.784Z,25
2018-08-11T04:46:35.929Z,25.13
2018-08-11T04:47:45.338Z,25
2018-08-11T04:48:54.745Z,25.06
2018-08-11T04:50:03.909Z,25.03
2018-08-11T04:51:13.060Z,25.09
2018-08-11T04:52:21.759Z,25.02
2018-08-11T04:53:31.434Z,25.05
2018-08-11T04:54:41.099Z,25.06
2018-08-11T04:55:50.042Z,25.02
2018-08-11T04:56:59.348Z,24.99
2018-08-11T04:58:08.518Z,25.03
2018-08-11T04:59:17.719Z,25.08
2018-08-11T05:00:26.870Z,24.99
2018-08-11T05:01:36.272Z,25.03
2018-08-11T05:02:45.965Z,25.09
2018-08-11T05:03:55.138Z,25.1
2018-08-11T05:05:04.808Z,25.06
2018-08-11T05:06:14.207Z,24.99
2018-08-11T05:07:23.872Z,24.96
2018-08-11T05:08:33.055Z,25.06
2018-08-11T05:09:42.312Z,25.03
2018-08-11T05:10:51.762Z,25.03
2018-08-11T05:12:00.908Z,24.99
2018-08-11T05:13:09.814Z,25
2018-08-11T05:14:19.206Z,24.96
2018-08-11T05:15:28.610Z,25
2018-08-11T05:16:37.522Z,25
2018-08-11T05:17:46.430Z,24.95
2018-08-11T05:18:56.101Z,24.98
2018-08-11T05:20:05.305Z,24.99
2018-08-11T05:21:14.458Z,25.02
2018-08-11T05:22:23.599Z,24.9
2018-08-11T05:23:32.529Z,24.99
2018-08-11T05:24:41.677Z,24.9
2018-08-11T05:25:51.362Z,24.99
2018-08-11T05:27:00.549Z,24.93
2018-08-11T05:28:10.497Z,24.99
2018-08-11T05:29:20.166Z,24.95
2018-08-11T05:30:29.325Z,24.99
2018-08-11T05:31:38.733Z,24.98
2018-08-11T05:32:47.876Z,25.06
2018-08-11T05:33:56.776Z,24.93
2018-08-11T05:35:06.479Z,24.96
2018-08-11T05:36:15.626Z,24.98
2018-08-11T05:37:25.097Z,25
2018-08-11T05:38:35.033Z,25.09
2018-08-11T05:39:44.696Z,25
2018-08-11T05:40:53.855Z,25.02
2018-08-11T05:42:03.512Z,25.02
2018-08-11T05:43:12.683Z,24.98
2018-08-11T05:44:22.105Z,25.02
2018-08-11T05:45:31.509Z,25.05
2018-08-11T05:46:41.454Z,25.06
2018-08-11T05:47:50.618Z,24.99
2018-08-11T05:49:00.059Z,25.1
2018-08-11T05:50:09.725Z,25.03
2018-08-11T05:51:19.188Z,24.96
2018-08-11T05:52:28.598Z,25.03
2018-08-11T05:53:37.756Z,25.03
2018-08-11T05:54:46.904Z,25.1
2018-08-11T05:55:56.299Z,24.96
2018-08-11T05:57:05.707Z,24.95
2018-08-11T05:58:15.104Z,25.08
2018-08-11T05:59:24.251Z,25.02
2018-08-11T06:00:33.402Z,25.02
2018-08-11T06:01:42.562Z,25.02
2018-08-11T06:02:51.980Z,24.98
2018-08-11T06:04:02.230Z,24.96
2018-08-11T06:05:11.882Z,25.03
2018-08-11T06:06:21.328Z,24.96
2018-08-11T06:07:30.560Z,25.03
2018-08-11T06:08:40.040Z,24.98
2018-08-11T06:09:48.747Z,24.99
2018-08-11T06:10:58.407Z,24.98
2018-08-11T06:12:07.913Z,25.06
2018-08-11T06:13:17.341Z,25
2018-08-11T06:14:27.025Z,24.98
2018-08-11T06:15:35.930Z,25
2018-08-11T06:16:45.646Z,24.93
2018-08-11T06:17:54.788Z,25.05
2018-08-11T06:19:04.444Z,24.98
2018-08-11T06:20:13.847Z,24.98
2018-08-11T06:21:23.770Z,24.96
2018-08-11T06:22:33.502Z,24.98
2018-08-11T06:23:42.663Z,24.95
2018-08-11T06:24:52.073Z,25.02
2018-08-11T06:26:01.487Z,25.02
2018-08-11T06:27:10.443Z,24.95
2018-08-11T06:28:19.864Z,24.96
2018-08-11T06:29:29.550Z,24.93
2018-08-11T06:30:39.222Z,24.9
2018-08-11T06:31:49.034Z,25
2018-08-11T06:32:59.040Z,25
2018-08-11T06:34:08.613Z,24.95
2018-08-11T06:35:18.308Z,24.91
2018-08-11T06:36:27.222Z,24.98
2018-08-11T06:37:36.136Z,24.91
2018-08-11T06:38:45.024Z,24.87
2018-08-11T06:39:54.730Z,24.98
2018-08-11T06:41:04.640Z,24.95
2018-08-11T06:42:14.641Z,24.96
2018-08-11T06:43:24.382Z,24.98
2018-08-11T06:44:33.293Z,24.93
2018-08-11T06:45:42.180Z,24.95
2018-08-11T06:46:52.357Z,24.95
2018-08-11T06:48:01.840Z,24.95
2018-08-11T06:49:11.018Z,24.91
2018-08-11T06:50:20.198Z,24.93
2018-08-11T06:51:29.377Z,24.95
2018-08-11T06:52:38.805Z,24.95
2018-08-11T06:53:47.973Z,24.91
2018-08-11T06:54:57.169Z,25
2018-08-11T06:56:06.311Z,24.98
2018-08-11T06:57:14.962Z,24.91
2018-08-11T06:58:24.377Z,24.96
2018-08-11T06:59:34.062Z,24.91
2018-08-11T07:00:43.466Z,24.98
2018-08-11T07:01:53.147Z,24.99
2018-08-11T07:03:01.805Z,24.95
2018-08-11T07:04:11.103Z,24.88
2018-08-11T07:05:20.522Z,24.95
2018-08-11T07:06:29.748Z,24.98
2018-08-11T07:07:39.497Z,24.96
2018-08-11T07:08:49.530Z,24.95
2018-08-11T07:09:58.684Z,24.95
2018-08-11T07:11:08.357Z,24.95
2018-08-11T07:12:17.560Z,24.91
2018-08-11T07:13:26.990Z,24.93
2018-08-11T07:14:36.412Z,24.9
2018-08-11T07:15:46.148Z,24.95
2018-08-11T07:16:55.828Z,24.96
2018-08-11T07:18:04.748Z,24.93
2018-08-11T07:19:13.696Z,24.95
2018-08-11T07:20:23.170Z,24.95
2018-08-11T07:21:32.346Z,24.95
2018-08-11T07:22:41.228Z,24.9
2018-08-11T07:23:50.179Z,24.99
2018-08-11T07:24:59.323Z,24.9
2018-08-11T07:26:08.496Z,24.9
2018-08-11T07:27:17.685Z,24.93
2018-08-11T07:28:27.732Z,24.93
2018-08-11T07:29:36.393Z,24.88
2018-08-11T07:30:46.152Z,24.91
2018-08-11T07:31:55.935Z,24.9
2018-08-11T07:33:05.347Z,24.88
2018-08-11T07:34:14.853Z,24.98
2018-08-11T07:35:24.393Z,24.85
2018-08-11T07:36:33.930Z,24.93
2018-08-11T07:37:43.864Z,24.93
2018-08-11T07:38:52.943Z,24.93
2018-08-11T07:40:01.627Z,24.87
2018-08-11T07:41:11.440Z,24.93
2018-08-11T07:42:20.865Z,24.93
2018-08-11T07:43:30.074Z,24.93
2018-08-11T07:44:39.348Z,24.98
2018-08-11T07:45:48.772Z,24.98
2018-08-11T07:46:58.480Z,24.95
2018-08-11T07:48:07.953Z,24.95
2018-08-11T07:49:17.163Z,25
2018-08-11T07:50:27.177Z,25.05
2018-08-11T07:51:36.672Z,25
2018-08-11T07:52:46.383Z,25.1
2018-08-11T07:53:55.811Z,25.15
2018-08-11T07:55:04.978Z,25.14
2018-08-11T07:56:14.432Z,25.18
2018-08-11T07:57:23.584Z,25.2
2018-08-11T07:58:33.011Z,25.17
2018-08-11T07:59:42.433Z,25.17
2018-08-11T08:00:51.335Z,25.24
2018-08-11T08:02:01.267Z,25.28
2018-08-11T08:03:10.436Z,25.27
2018-08-11T08:04:19.857Z,25.28
2018-08-11T08:05:29.519Z,25.27
2018-08-11T08:06:38.950Z,25.33
2018-08-11T08:07:48.668Z,25.32
2018-08-11T08:08:58.512Z,25.32
2018-08-11T08:10:08.075Z,25.32
2018-08-11T08:11:17.557Z,25.33
2018-08-11T08:12:27.517Z,25.3
2018-08-11T08:13:36.776Z,25.38
2018-08-11T08:14:47.280Z,25.28
2018-08-11T08:15:56.191Z,25.3
2018-08-11T08:17:05.436Z,25.39
2018-08-11T08:18:14.844Z,25.32
2018-08-11T08:19:24.216Z,25.33
2018-08-11T08:20:33.618Z,25.33
2018-08-11T08:21:43.685Z,25.33
2018-08-11T08:22:53.366Z,25.35
2018-08-11T08:24:02.953Z,25.33
2018-08-11T08:25:12.638Z,25.32
2018-08-11T08:26:22.868Z,25.42
2018-08-11T08:27:32.767Z,25.35
2018-08-11T08:28:42.197Z,25.4
2018-08-11T08:29:52.026Z,25.39
2018-08-11T08:31:01.747Z,25.32
2018-08-11T08:32:10.942Z,25.45
2018-08-11T08:33:20.116Z,25.43
2018-08-11T08:34:29.571Z,25.42
2018-08-11T08:35:39.044Z,25.4
2018-08-11T08:36:48.455Z,25.33
2018-08-11T08:37:57.625Z,25.35
2018-08-11T08:39:06.792Z,25.36
2018-08-11T08:40:16.242Z,25.35
2018-08-11T08:41:25.159Z,25.4
2018-08-11T08:42:33.879Z,25.4
2018-08-11T08:43:42.545Z,25.38
2018-08-11T08:44:51.809Z,25.45
2018-08-11T08:46:00.976Z,25.45
2018-08-11T08:47:10.129Z,25.5
2018-08-11T08:48:19.795Z,25.54
2018-08-11T08:49:29.521Z,25.43
2018-08-11T08:50:38.687Z,25.42
2018-08-11T08:51:48.544Z,25.47
2018-08-11T08:52:57.178Z,25.47
2018-08-11T08:54:06.074Z,25.46
2018-08-11T08:55:14.991Z,25.51
2018-08-11T08:56:24.417Z,25.51
2018-08-11T08:57:33.632Z,25.55
2018-08-11T08:58:43.075Z,25.47
2018-08-11T08:59:52.262Z,25.46
2018-08-11T09:01:01.945Z,25.54
2018-08-11T09:02:11.432Z,25.52
2018-08-11T09:03:20.602Z,25.57
2018-08-11T09:04:30.474Z,25.52
2018-08-11T09:05:40.907Z,25.57
2018-08-11T09:06:50.060Z,25.52
2018-08-11T09:07:59.110Z,25.46
2018-08-11T09:09:08.376Z,25.47
2018-08-11T09:10:17.826Z,25.51
2018-08-11T09:11:26.748Z,25.47
2018-08-11T09:12:35.941Z,25.51
2018-08-11T09:13:45.111Z,25.54
2018-08-11T09:14:54.778Z,25.42
2018-08-11T09:16:04.200Z,25.55
2018-08-11T09:17:13.347Z,25.58
2018-08-11T09:18:22.539Z,25.65
2018-08-11T09:19:32.207Z,25.57
2018-08-11T09:20:41.772Z,25.54
2018-08-11T09:21:50.939Z,25.61
2018-08-11T09:23:00.149Z,25.57
2018-08-11T09:24:09.299Z,25.58
2018-08-11T09:25:18.733Z,25.7
2018-08-11T09:26:28.453Z,25.64
2018-08-11T09:27:38.214Z,25.65
2018-08-11T09:28:47.116Z,25.62
2018-08-11T09:29:56.537Z,25.65
2018-08-11T09:31:05.737Z,25.65
2018-08-11T09:32:15.178Z,25.61
2018-08-11T09:33:24.359Z,25.65
2018-08-11T09:34:33.592Z,25.69
2018-08-11T09:35:43.008Z,25.58
2018-08-11T09:36:52.207Z,25.65
2018-08-11T09:38:01.892Z,25.64
2018-08-11T09:39:10.785Z,25.62
2018-08-11T09:40:19.957Z,25.69
2018-08-11T09:41:29.227Z,25.58
2018-08-11T09:42:38.905Z,25.62
2018-08-11T09:43:48.336Z,25.61
2018-08-11T09:44:58.000Z,25.7
2018-08-11T09:46:07.913Z,25.65
2018-08-11T09:47:17.681Z,25.7
2018-08-11T09:48:27.112Z,25.7
2018-08-11T09:49:35.769Z,25.69
2018-08-11T09:50:44.693Z,25.67
2018-08-11T09:51:53.701Z,25.69
2018-08-11T09:53:02.612Z,25.65
2018-08-11T09:54:12.042Z,25.69
2018-08-11T09:55:21.520Z,25.7
2018-08-11T09:56:31.177Z,25.72
2018-08-11T09:57:40.600Z,25.69
2018-08-11T09:58:50.141Z,25.7
2018-08-11T09:59:59.370Z,25.67
2018-08-11T10:01:08.015Z,25.72
2018-08-11T10:02:17.194Z,25.72
2018-08-11T10:03:26.359Z,25.67
2018-08-11T10:04:35.583Z,25.73
2018-08-11T10:05:44.737Z,25.7
2018-08-11T10:06:53.923Z,25.76
2018-08-11T10:08:03.343Z,25.73
2018-08-11T10:09:12.762Z,25.75
2018-08-11T10:10:22.007Z,25.73
2018-08-11T10:11:31.979Z,25.77
2018-08-11T10:12:41.128Z,25.77
2018-08-11T10:13:50.321Z,25.72
2018-08-11T10:14:59.492Z,25.72
2018-08-11T10:16:09.161Z,25.73
2018-08-11T10:17:18.571Z,25.69
2018-08-11T10:18:28.085Z,25.73
2018-08-11T10:19:38.387Z,25.72
2018-08-11T10:20:47.530Z,25.73
2018-08-11T10:21:56.440Z,25.75
2018-08-11T10:23:05.409Z,25.77
2018-08-11T10:24:14.851Z,25.79
2018-08-11T10:25:24.265Z,25.77
2018-08-11T10:26:33.496Z,25.82
2018-08-11T10:27:42.920Z,25.76
2018-08-11T10:28:52.583Z,25.79
2018-08-11T10:30:01.323Z,25.79
2018-08-11T10:31:10.751Z,25.8
2018-08-11T10:32:19.995Z,25.82
2018-08-11T10:33:29.149Z,25.77
2018-08-11T10:34:38.812Z,25.82
2018-08-11T10:35:47.975Z,25.82
2018-08-11T10:36:57.656Z,25.79
2018-08-11T10:38:07.081Z,25.82
2018-08-11T10:39:16.506Z,25.82
2018-08-11T10:40:26.701Z,25.82
2018-08-11T10:41:36.630Z,25.76
2018-08-11T10:42:45.768Z,25.85
2018-08-11T10:43:55.216Z,25.8
2018-08-11T10:45:03.927Z,25.85
2018-08-11T10:46:13.116Z,25.9
2018-08-11T10:47:21.773Z,25.9
2018-08-11T10:48:31.487Z,25.82
2018-08-11T10:49:40.891Z,25.76
2018-08-11T10:50:50.039Z,25.83
2018-08-11T10:51:58.950Z,25.8
2018-08-11T10:53:08.622Z,25.92
2018-08-11T10:54:18.906Z,25.88
2018-08-11T10:55:28.311Z,25.82
2018-08-11T10:56:37.465Z,25.82
2018-08-11T10:57:46.902Z,25.88
2018-08-11T10:58:55.803Z,25.9
2018-08-11T11:00:04.975Z,25.85
2018-08-11T11:01:14.026Z,25.87
2018-08-11T11:02:24.024Z,25.94
2018-08-11T11:03:33.696Z,25.91
2018-08-11T11:04:43.562Z,25.9
2018-08-11T11:05:52.724Z,25.91
2018-08-11T11:07:02.133Z,25.87
2018-08-11T11:08:11.038Z,25.83
2018-08-11T11:09:20.221Z,25.9
2018-08-11T11:10:29.900Z,25.92
2018-08-11T11:11:38.814Z,25.94
2018-08-11T11:12:48.539Z,25.91
2018-08-11T11:13:57.491Z,25.9
2018-08-11T11:15:06.636Z,25.92
2018-08-11T11:16:16.372Z,25.88
2018-08-11T11:17:25.514Z,25.92
2018-08-11T11:18:35.331Z,25.9
2018-08-11T11:19:44.812Z,25.9
2018-08-11T11:20:54.710Z,25.9
2018-08-11T11:22:04.327Z,25.9
2018-08-11T11:23:13.245Z,25.88
2018-08-11T11:24:23.181Z,25.92
2018-08-11T11:25:32.900Z,25.92
2018-08-11T11:26:42.058Z,25.95
2018-08-11T11:27:51.721Z,25.91
2018-08-11T11:29:01.418Z,25.94
2018-08-11T11:30:10.571Z,25.92
2018-08-11T11:31:19.731Z,25.92
2018-08-11T11:32:28.357Z,25.91
2018-08-11T11:33:37.770Z,25.95
2018-08-11T11:34:46.688Z,25.98
2018-08-11T11:35:56.350Z,25.91
2018-08-11T11:37:05.249Z,25.95
2018-08-11T11:38:15.027Z,25.97
2018-08-11T11:39:23.781Z,25.99
2018-08-11T11:40:32.691Z,25.94
2018-08-11T11:41:41.900Z,25.92
2018-08-11T11:42:51.063Z,25.91
2018-08-11T11:44:00.229Z,25.91
2018-08-11T11:45:09.127Z,26.05
2018-08-11T11:46:18.298Z,25.92
2018-08-11T11:47:27.466Z,25.97
2018-08-11T11:48:36.912Z,26.01
2018-08-11T11:49:46.344Z,26.05
2018-08-11T11:50:55.761Z,25.95
2018-08-11T11:52:05.431Z,25.97
2018-08-11T11:53:15.112Z,25.92
2018-08-11T11:54:24.811Z,26.09
2018-08-11T11:55:33.705Z,25.98
2018-08-11T11:56:43.165Z,25.94
2018-08-11T11:57:52.354Z,25.92
2018-08-11T11:59:01.254Z,26.09
2018-08-11T12:00:10.417Z,26.02
2018-08-11T12:01:19.648Z,25.99
2018-08-11T12:02:28.805Z,26.05
2018-08-11T12:03:38.226Z,25.97
2018-08-11T12:04:47.637Z,25.94
2018-08-11T12:05:57.535Z,25.99
2018-08-11T12:07:06.783Z,25.98
2018-08-11T12:08:15.927Z,25.95
2018-08-11T12:09:24.836Z,25.95
2018-08-11T12:10:33.730Z,26.02
2018-08-11T12:11:42.671Z,25.99
2018-08-11T12:12:52.333Z,26.09
2018-08-11T12:14:01.814Z,26.01
2018-08-11T12:15:11.744Z,26.06
2018-08-11T12:16:20.900Z,25.98
2018-08-11T12:17:29.851Z,26.05
2018-08-11T12:18:39.000Z,26.09
2018-08-11T12:19:48.183Z,26.05
2018-08-11T12:20:56.845Z,25.99
2018-08-11T12:22:06.270Z,25.98
2018-08-11T12:23:15.715Z,25.98
2018-08-11T12:24:25.177Z,25.98
2018-08-11T12:25:34.849Z,25.97
2018-08-11T12:26:44.263Z,26.02
2018-08-11T12:27:53.449Z,25.98
2018-08-11T12:29:02.655Z,26.06
2018-08-11T12:30:12.112Z,26.05
2018-08-11T12:31:21.546Z,25.94
2018-08-11T12:32:30.696Z,26.01
2018-08-11T12:33:40.105Z,26.1
2018-08-11T12:34:49.800Z,26.02
2018-08-11T12:35:59.548Z,25.95
2018-08-11T12:37:08.718Z,25.95
2018-08-11T12:38:18.304Z,25.99
2018-08-11T12:39:27.469Z,26.06
2018-08-11T12:40:36.114Z,26.01
2018-08-11T12:41:45.007Z,26.05
2018-08-11T12:42:53.897Z,26.05
2018-08-11T12:44:03.583Z,26.01
2018-08-11T12:45:13.232Z,25.98
2018-08-11T12:46:22.126Z,26.01
2018-08-11T12:47:31.554Z,26.01
2018-08-11T12:48:40.711Z,25.98
2018-08-11T12:49:49.607Z,26.09
2018-08-11T12:50:59.022Z,26.05
2018-08-11T12:52:07.679Z,25.99
2018-08-11T12:53:17.082Z,25.97
2018-08-11T12:54:26.796Z,25.98
2018-08-11T12:55:35.682Z,26.01
2018-08-11T12:56:45.264Z,25.92
2018-08-11T12:57:54.409Z,26.02
2018-08-11T12:59:03.814Z,25.99
2018-08-11T13:00:12.989Z,25.95
2018-08-11T13:01:22.412Z,26.02
2018-08-11T13:02:31.311Z,25.97
2018-08-11T13:03:40.723Z,25.97
2018-08-11T13:04:49.950Z,26.06
2018-08-11T13:05:59.616Z,26.02
2018-08-11T13:07:09.133Z,26.01
2018-08-11T13:08:18.288Z,26.02
2018-08-11T13:09:59.843Z,25.99
2018-08-11T13:11:09.278Z,25.99
2018-08-11T13:12:19.250Z,26.01
2018-08-11T13:13:28.678Z,26.01
2018-08-11T13:14:37.865Z,26.07
2018-08-11T13:15:47.811Z,26.07
2018-08-11T13:16:57.218Z,26.06
2018-08-11T13:18:06.642Z,26.09
2018-08-11T13:19:16.079Z,25.98
2018-08-11T13:20:25.504Z,26.06
2018-08-11T13:21:34.399Z,26.07
2018-08-11T13:22:43.804Z,26.1
2018-08-11T13:23:52.691Z,26.13
2018-08-11T13:25:01.846Z,26.1
2018-08-11T13:26:11.522Z,26.1
2018-08-11T13:27:20.687Z,26.12
2018-08-11T13:28:29.597Z,26.1
2018-08-11T13:29:39.060Z,26.1
2018-08-11T13:30:48.213Z,26.12
2018-08-11T13:31:57.655Z,26.12
2018-08-11T13:33:06.797Z,26.13
2018-08-11T13:34:15.974Z,26.12
2018-08-11T13:35:25.416Z,26.09
2018-08-11T13:36:35.107Z,26.05
2018-08-11T13:37:44.670Z,26.1
2018-08-11T13:38:54.098Z,26.13
2018-08-11T13:40:03.511Z,26.17
2018-08-11T13:41:12.655Z,26.2
2018-08-11T13:42:21.555Z,26.05
2018-08-11T13:43:30.694Z,26.15
2018-08-11T13:44:40.470Z,26.23
2018-08-11T13:45:50.125Z,26.1
2018-08-11T13:46:59.472Z,26.2
2018-08-11T13:48:08.881Z,26.2
2018-08-11T13:49:18.274Z,26.25
2018-08-11T13:50:28.321Z,26.21
2018-08-11T13:51:37.708Z,26.26
2018-08-11T13:52:47.136Z,26.25
2018-08-11T13:53:56.612Z,26.21
2018-08-11T13:55:05.857Z,26.25
2018-08-11T13:56:15.666Z,26.26
2018-08-11T13:57:25.592Z,26.2
2018-08-11T13:58:35.521Z,26.33
2018-08-11T13:59:44.406Z,26.26
2018-08-11T14:00:54.070Z,26.33
2018-08-11T14:02:02.725Z,26.33
2018-08-11T14:03:12.746Z,26.28
2018-08-11T14:04:22.152Z,26.3
2018-08-11T14:05:31.815Z,26.33
2018-08-11T14:06:41.483Z,26.25
2018-08-11T14:07:50.635Z,26.26
2018-08-11T14:09:00.041Z,26.32
2018-08-11T14:10:09.482Z,26.32
2018-08-11T14:11:18.949Z,26.32
2018-08-11T14:12:28.359Z,26.32
2018-08-11T14:13:37.799Z,26.39
2018-08-11T14:14:47.262Z,26.35
2018-08-11T14:15:56.820Z,26.33
2018-08-11T14:17:06.476Z,26.35
2018-08-11T14:18:15.381Z,26.4
2018-08-11T14:19:24.525Z,26.47
2018-08-11T14:20:34.381Z,26.44
2018-08-11T14:21:43.297Z,26.43
2018-08-11T14:22:52.449Z,26.43
2018-08-11T14:24:02.118Z,26.44
2018-08-11T14:25:11.575Z,26.47
2018-08-11T14:26:20.513Z,26.43
2018-08-11T14:27:29.675Z,26.45
2018-08-11T14:28:38.820Z,26.45
2018-08-11T14:29:47.983Z,26.47
2018-08-11T14:30:57.635Z,26.47
2018-08-11T14:32:06.776Z,26.43
2018-08-11T14:33:16.487Z,26.45
2018-08-11T14:34:26.032Z,26.47
2018-08-11T14:35:35.832Z,26.52
2018-08-11T14:36:45.500Z,26.54
2018-08-11T14:37:55.169Z,26.51
2018-08-11T14:39:04.828Z,26.52
2018-08-11T14:40:14.250Z,26.57
2018-08-11T14:41:23.427Z,26.57
2018-08-11T14:42:32.064Z,26.6
2018-08-11T14:43:42.420Z,26.57
2018-08-11T14:44:51.664Z,26.54
2018-08-11T14:46:01.360Z,26.63
2018-08-11T14:47:10.769Z,26.55
2018-08-11T14:48:20.432Z,26.57
2018-08-11T14:49:30.187Z,26.51
2018-08-11T14:50:39.905Z,26.65
2018-08-11T14:51:49.959Z,26.54
2018-08-11T14:52:59.964Z,26.65
2018-08-11T14:54:10.499Z,26.65
2018-08-11T14:55:19.904Z,26.65
2018-08-11T14:56:29.469Z,26.67
2018-08-11T14:57:38.651Z,26.65
2018-08-11T14:58:48.053Z,26.65
2018-08-11T14:59:56.945Z,26.67